sensor_id;sensor_type;location;lat;lon;timestamp;temperature;humidity
2389;DHT22;1205;47.984;7.668;2023-02-04T00:00:48;7.30;99.90
2389;DHT22;1205;47.984;7.668;2023-02-04T00:03:15;7.30;99.90
2389;DHT22;1205;47.984;7.668;2023-02-04T00:05:41;7.40;99.90
2389;DHT22;1205;47.984;7.668;2023-02-04T00:08:07;7.30;99.90
2389;DHT22;1205;47.984;7.668;2023-02-04T00:10:33;7.30;99.90
2389;DHT22;1205;47.984;7.668;2023-02-04T00:12:59;7.30;99.90
2389;DHT22;1205;47.984;7.668;2023-02-04T00:15:24;7.30;99.90
2389;DHT22;1205;47.984;7.668;2023-02-04T00:17:50;7.40;99.90
2389;DHT22;1205;47.984;7.668;2023-02-04T00:20:16;7.30;99.90
2389;DHT22;1205;47.984;7.668;2023-02-04T00:22:41;7.30;99.90
2389;DHT22;1205;47.984;7.668;2023-02-04T00:25:07;7.30;99.90
2389;DHT22;1205;47.984;7.668;2023-02-04T00:27:33;7.30;99.90
2389;DHT22;1205;47.984;7.668;2023-02-04T00:29:58;7.30;99.90
2389;DHT22;1205;47.984;7.668;2023-02-04T00:32:24;7.30;99.90
2389;DHT22;1205;47.984;7.668;2023-02-04T00:34:49;7.20;99.90
2389;DHT22;1205;47.984;7.668;2023-02-04T00:37:15;7.20;99.90
2389;DHT22;1205;47.984;7.668;2023-02-04T00:39:41;7.20;99.90
2389;DHT22;1205;47.984;7.668;2023-02-04T00:42:06;7.20;99.90
2389;DHT22;1205;47.984;7.668;2023-02-04T00:44:32;7.20;99.90
2389;DHT22;1205;47.984;7.668;2023-02-04T00:46:58;7.20;99.90
2389;DHT22;1205;47.984;7.668;2023-02-04T00:49:23;7.20;99.90
2389;DHT22;1205;47.984;7.668;2023-02-04T00:51:49;7.20;99.90
2389;DHT22;1205;47.984;7.668;2023-02-04T00:54:15;7.20;99.90
2389;DHT22;1205;47.984;7.668;2023-02-04T00:56:42;7.20;99.90
2389;DHT22;1205;47.984;7.668;2023-02-04T00:59:07;7.20;99.90
2389;DHT22;1205;47.984;7.668;2023-02-04T01:01:33;7.20;99.90
2389;DHT22;1205;47.984;7.668;2023-02-04T01:03:59;7.20;99.90
2389;DHT22;1205;47.984;7.668;2023-02-04T01:06:24;7.20;99.90
2389;DHT22;1205;47.984;7.668;2023-02-04T01:08:50;7.20;99.90
2389;DHT22;1205;47.984;7.668;2023-02-04T01:11:16;7.20;99.90
2389;DHT22;1205;47.984;7.668;2023-02-04T01:13:42;7.20;99.90
2389;DHT22;1205;47.984;7.668;2023-02-04T01:16:08;7.20;99.90
2389;DHT22;1205;47.984;7.668;2023-02-04T01:18:33;7.20;99.90
2389;DHT22;1205;47.984;7.668;2023-02-04T01:20:59;7.10;99.90
2389;DHT22;1205;47.984;7.668;2023-02-04T01:23:24;7.10;99.90
2389;DHT22;1205;47.984;7.668;2023-02-04T01:25:50;7.10;99.90
2389;DHT22;1205;47.984;7.668;2023-02-04T01:28:15;7.00;99.90
2389;DHT22;1205;47.984;7.668;2023-02-04T01:30:41;7.10;99.90
2389;DHT22;1205;47.984;7.668;2023-02-04T01:33:06;7.10;99.90
2389;DHT22;1205;47.984;7.668;2023-02-04T01:35:32;7.10;99.90
2389;DHT22;1205;47.984;7.668;2023-02-04T01:37:57;7.10;99.90
2389;DHT22;1205;47.984;7.668;2023-02-04T01:40:23;7.10;99.90
2389;DHT22;1205;47.984;7.668;2023-02-04T01:42:49;7.10;99.90
2389;DHT22;1205;47.984;7.668;2023-02-04T01:45:15;7.10;99.90
2389;DHT22;1205;47.984;7.668;2023-02-04T01:47:41;7.10;99.90
2389;DHT22;1205;47.984;7.668;2023-02-04T01:50:10;7.10;99.90
2389;DHT22;1205;47.984;7.668;2023-02-04T01:52:37;7.10;99.90
2389;DHT22;1205;47.984;7.668;2023-02-04T01:55:08;7.10;99.90
2389;DHT22;1205;47.984;7.668;2023-02-04T01:57:36;7.20;99.90
2389;DHT22;1205;47.984;7.668;2023-02-04T02:00:03;7.20;99.90
2389;DHT22;1205;47.984;7.668;2023-02-04T02:02:55;7.20;99.90
2389;DHT22;1205;47.984;7.668;2023-02-04T02:05:27;7.20;99.90
2389;DHT22;1205;47.984;7.668;2023-02-04T02:07:56;7.10;99.90
2389;DHT22;1205;47.984;7.668;2023-02-04T02:10:23;7.20;99.90
2389;DHT22;1205;47.984;7.668;2023-02-04T02:12:49;7.20;99.90
2389;DHT22;1205;47.984;7.668;2023-02-04T02:15:16;7.20;99.90
2389;DHT22;1205;47.984;7.668;2023-02-04T02:17:42;7.20;99.90
2389;DHT22;1205;47.984;7.668;2023-02-04T02:20:14;7.20;99.90
2389;DHT22;1205;47.984;7.668;2023-02-04T02:23:00;7.20;99.90
2389;DHT22;1205;47.984;7.668;2023-02-04T02:25:27;7.20;99.90
2389;DHT22;1205;47.984;7.668;2023-02-04T02:27:53;7.20;99.90
2389;DHT22;1205;47.984;7.668;2023-02-04T02:30:19;7.20;99.90
2389;DHT22;1205;47.984;7.668;2023-02-04T02:32:47;7.20;99.90
2389;DHT22;1205;47.984;7.668;2023-02-04T02:35:14;7.30;99.90
2389;DHT22;1205;47.984;7.668;2023-02-04T02:37:40;7.20;99.90
2389;DHT22;1205;47.984;7.668;2023-02-04T02:40:06;7.20;99.90
2389;DHT22;1205;47.984;7.668;2023-02-04T02:42:32;7.30;99.90
2389;DHT22;1205;47.984;7.668;2023-02-04T02:44:58;7.30;99.90
2389;DHT22;1205;47.984;7.668;2023-02-04T02:47:24;7.30;99.90
2389;DHT22;1205;47.984;7.668;2023-02-04T02:49:52;7.30;99.90
2389;DHT22;1205;47.984;7.668;2023-02-04T02:52:18;7.30;99.90
2389;DHT22;1205;47.984;7.668;2023-02-04T02:54:44;7.20;99.90
2389;DHT22;1205;47.984;7.668;2023-02-04T02:57:18;7.10;99.90
2389;DHT22;1205;47.984;7.668;2023-02-04T02:59:45;7.20;99.90
2389;DHT22;1205;47.984;7.668;2023-02-04T03:02:13;7.20;99.90
2389;DHT22;1205;47.984;7.668;2023-02-04T03:04:43;7.20;99.90
2389;DHT22;1205;47.984;7.668;2023-02-04T03:07:11;7.30;99.90
2389;DHT22;1205;47.984;7.668;2023-02-04T03:09:37;7.20;99.90
2389;DHT22;1205;47.984;7.668;2023-02-04T03:12:04;7.30;99.90
2389;DHT22;1205;47.984;7.668;2023-02-04T03:14:30;7.30;99.90
2389;DHT22;1205;47.984;7.668;2023-02-04T03:16:57;7.30;99.90
2389;DHT22;1205;47.984;7.668;2023-02-04T03:19:24;7.30;99.90
2389;DHT22;1205;47.984;7.668;2023-02-04T03:21:50;7.40;99.90
2389;DHT22;1205;47.984;7.668;2023-02-04T03:24:17;7.40;99.90
2389;DHT22;1205;47.984;7.668;2023-02-04T03:26:42;7.40;99.90
2389;DHT22;1205;47.984;7.668;2023-02-04T03:29:09;7.40;99.90
2389;DHT22;1205;47.984;7.668;2023-02-04T03:31:35;7.40;99.90
2389;DHT22;1205;47.984;7.668;2023-02-04T03:34:03;7.40;99.90
2389;DHT22;1205;47.984;7.668;2023-02-04T03:36:28;7.40;99.90
2389;DHT22;1205;47.984;7.668;2023-02-04T03:38:54;7.40;99.90
2389;DHT22;1205;47.984;7.668;2023-02-04T03:41:19;7.30;99.90
2389;DHT22;1205;47.984;7.668;2023-02-04T03:43:45;7.30;99.90
2389;DHT22;1205;47.984;7.668;2023-02-04T03:46:10;7.30;99.90
2389;DHT22;1205;47.984;7.668;2023-02-04T03:48:36;7.40;99.90
2389;DHT22;1205;47.984;7.668;2023-02-04T03:51:02;7.40;99.90
2389;DHT22;1205;47.984;7.668;2023-02-04T03:53:27;7.40;99.90
2389;DHT22;1205;47.984;7.668;2023-02-04T03:55:53;7.40;99.90
2389;DHT22;1205;47.984;7.668;2023-02-04T03:58:18;7.30;99.90
2389;DHT22;1205;47.984;7.668;2023-02-04T04:00:44;7.30;99.90
2389;DHT22;1205;47.984;7.668;2023-02-04T04:03:09;7.40;99.90
2389;DHT22;1205;47.984;7.668;2023-02-04T04:05:35;7.40;99.90
2389;DHT22;1205;47.984;7.668;2023-02-04T04:08:01;7.30;99.90
2389;DHT22;1205;47.984;7.668;2023-02-04T04:10:26;7.30;99.90
2389;DHT22;1205;47.984;7.668;2023-02-04T04:12:53;7.30;99.90
2389;DHT22;1205;47.984;7.668;2023-02-04T04:15:19;7.40;99.90
2389;DHT22;1205;47.984;7.668;2023-02-04T04:17:45;7.40;99.90
2389;DHT22;1205;47.984;7.668;2023-02-04T04:20:11;7.40;99.90
2389;DHT22;1205;47.984;7.668;2023-02-04T04:22:37;7.40;99.90
2389;DHT22;1205;47.984;7.668;2023-02-04T04:25:03;7.40;99.90
2389;DHT22;1205;47.984;7.668;2023-02-04T04:27:28;7.40;99.90
2389;DHT22;1205;47.984;7.668;2023-02-04T04:29:55;7.30;99.90
2389;DHT22;1205;47.984;7.668;2023-02-04T04:32:20;7.30;99.90
2389;DHT22;1205;47.984;7.668;2023-02-04T04:34:46;7.30;99.90
2389;DHT22;1205;47.984;7.668;2023-02-04T04:37:12;7.40;99.90
2389;DHT22;1205;47.984;7.668;2023-02-04T04:39:37;7.40;99.90
2389;DHT22;1205;47.984;7.668;2023-02-04T04:42:03;7.40;99.90
2389;DHT22;1205;47.984;7.668;2023-02-04T04:44:28;7.40;99.90
2389;DHT22;1205;47.984;7.668;2023-02-04T04:46:54;7.40;99.90
2389;DHT22;1205;47.984;7.668;2023-02-04T04:49:19;7.40;99.90
2389;DHT22;1205;47.984;7.668;2023-02-04T04:51:45;7.40;99.90
2389;DHT22;1205;47.984;7.668;2023-02-04T04:54:11;7.40;99.90
2389;DHT22;1205;47.984;7.668;2023-02-04T04:56:36;7.40;99.90
2389;DHT22;1205;47.984;7.668;2023-02-04T04:59:02;7.40;99.90
2389;DHT22;1205;47.984;7.668;2023-02-04T05:01:28;7.50;99.90
2389;DHT22;1205;47.984;7.668;2023-02-04T05:03:53;7.40;99.90
2389;DHT22;1205;47.984;7.668;2023-02-04T05:06:19;7.40;99.90
2389;DHT22;1205;47.984;7.668;2023-02-04T05:08:50;7.40;99.90
2389;DHT22;1205;47.984;7.668;2023-02-04T05:11:16;7.40;99.90
2389;DHT22;1205;47.984;7.668;2023-02-04T05:13:41;7.40;99.90
2389;DHT22;1205;47.984;7.668;2023-02-04T05:16:07;7.40;99.90
2389;DHT22;1205;47.984;7.668;2023-02-04T05:18:32;7.40;99.90
2389;DHT22;1205;47.984;7.668;2023-02-04T05:20:58;7.40;99.90
2389;DHT22;1205;47.984;7.668;2023-02-04T05:23:23;7.40;99.90
2389;DHT22;1205;47.984;7.668;2023-02-04T05:25:49;7.40;99.90
2389;DHT22;1205;47.984;7.668;2023-02-04T05:28:14;7.40;99.90
2389;DHT22;1205;47.984;7.668;2023-02-04T05:30:40;7.40;99.90
2389;DHT22;1205;47.984;7.668;2023-02-04T05:33:05;7.40;99.90
2389;DHT22;1205;47.984;7.668;2023-02-04T05:35:31;7.40;99.90
2389;DHT22;1205;47.984;7.668;2023-02-04T05:37:56;7.40;99.90
2389;DHT22;1205;47.984;7.668;2023-02-04T05:40:22;7.50;99.90
2389;DHT22;1205;47.984;7.668;2023-02-04T05:42:47;7.40;99.90
2389;DHT22;1205;47.984;7.668;2023-02-04T05:45:15;7.40;99.90
2389;DHT22;1205;47.984;7.668;2023-02-04T05:47:41;7.40;99.90
2389;DHT22;1205;47.984;7.668;2023-02-04T05:50:06;7.50;99.90
2389;DHT22;1205;47.984;7.668;2023-02-04T05:52:32;7.40;99.90
2389;DHT22;1205;47.984;7.668;2023-02-04T05:54:58;7.40;99.90
2389;DHT22;1205;47.984;7.668;2023-02-04T05:57:24;7.40;99.90
2389;DHT22;1205;47.984;7.668;2023-02-04T05:59:49;7.40;99.90
2389;DHT22;1205;47.984;7.668;2023-02-04T06:02:15;7.30;99.90
2389;DHT22;1205;47.984;7.668;2023-02-04T06:04:40;7.30;99.90
2389;DHT22;1205;47.984;7.668;2023-02-04T06:07:06;7.40;99.90
2389;DHT22;1205;47.984;7.668;2023-02-04T06:09:31;7.40;99.90
2389;DHT22;1205;47.984;7.668;2023-02-04T06:11:57;7.30;99.90
2389;DHT22;1205;47.984;7.668;2023-02-04T06:14:22;7.30;99.90
2389;DHT22;1205;47.984;7.668;2023-02-04T06:16:48;7.30;99.90
2389;DHT22;1205;47.984;7.668;2023-02-04T06:19:14;7.40;99.90
2389;DHT22;1205;47.984;7.668;2023-02-04T06:21:39;7.40;99.90
2389;DHT22;1205;47.984;7.668;2023-02-04T06:24:05;7.40;99.90
2389;DHT22;1205;47.984;7.668;2023-02-04T06:26:30;7.40;99.90
2389;DHT22;1205;47.984;7.668;2023-02-04T06:28:56;7.40;99.90
2389;DHT22;1205;47.984;7.668;2023-02-04T06:31:22;7.40;99.90
2389;DHT22;1205;47.984;7.668;2023-02-04T06:33:47;7.40;99.90
2389;DHT22;1205;47.984;7.668;2023-02-04T06:36:13;7.40;99.90
2389;DHT22;1205;47.984;7.668;2023-02-04T06:38:39;7.50;99.90
2389;DHT22;1205;47.984;7.668;2023-02-04T06:41:04;7.50;99.90
2389;DHT22;1205;47.984;7.668;2023-02-04T06:43:30;7.50;99.90
2389;DHT22;1205;47.984;7.668;2023-02-04T06:45:55;7.50;99.90
2389;DHT22;1205;47.984;7.668;2023-02-04T06:48:21;7.50;99.90
2389;DHT22;1205;47.984;7.668;2023-02-04T06:50:46;7.50;99.90
2389;DHT22;1205;47.984;7.668;2023-02-04T06:53:12;7.50;99.90
2389;DHT22;1205;47.984;7.668;2023-02-04T06:55:38;7.50;99.90
2389;DHT22;1205;47.984;7.668;2023-02-04T06:58:03;7.60;99.90
2389;DHT22;1205;47.984;7.668;2023-02-04T07:00:29;7.50;99.90
2389;DHT22;1205;47.984;7.668;2023-02-04T07:02:58;7.50;99.90
2389;DHT22;1205;47.984;7.668;2023-02-04T07:05:24;7.50;99.90
2389;DHT22;1205;47.984;7.668;2023-02-04T07:07:49;7.50;99.90
2389;DHT22;1205;47.984;7.668;2023-02-04T07:10:16;7.60;99.90
2389;DHT22;1205;47.984;7.668;2023-02-04T07:12:42;7.60;99.90
2389;DHT22;1205;47.984;7.668;2023-02-04T07:15:08;7.60;99.90
2389;DHT22;1205;47.984;7.668;2023-02-04T07:17:33;7.50;99.90
2389;DHT22;1205;47.984;7.668;2023-02-04T07:19:59;7.50;99.90
2389;DHT22;1205;47.984;7.668;2023-02-04T07:22:25;7.60;99.90
2389;DHT22;1205;47.984;7.668;2023-02-04T07:24:50;7.60;99.90
2389;DHT22;1205;47.984;7.668;2023-02-04T07:27:16;7.60;99.90
2389;DHT22;1205;47.984;7.668;2023-02-04T07:29:41;7.70;99.90
2389;DHT22;1205;47.984;7.668;2023-02-04T07:32:07;7.60;99.90
2389;DHT22;1205;47.984;7.668;2023-02-04T07:34:33;7.60;99.90
2389;DHT22;1205;47.984;7.668;2023-02-04T07:36:58;7.60;99.90
2389;DHT22;1205;47.984;7.668;2023-02-04T07:39:24;8.20;99.90
2389;DHT22;1205;47.984;7.668;2023-02-04T07:41:49;7.90;99.90
2389;DHT22;1205;47.984;7.668;2023-02-04T07:44:15;7.90;99.90
2389;DHT22;1205;47.984;7.668;2023-02-04T07:46:40;7.90;99.90
2389;DHT22;1205;47.984;7.668;2023-02-04T07:49:06;7.90;99.90
2389;DHT22;1205;47.984;7.668;2023-02-04T07:51:31;7.90;99.90
2389;DHT22;1205;47.984;7.668;2023-02-04T07:53:57;7.90;99.90
2389;DHT22;1205;47.984;7.668;2023-02-04T07:56:23;7.80;99.90
2389;DHT22;1205;47.984;7.668;2023-02-04T07:58:48;7.70;99.90
2389;DHT22;1205;47.984;7.668;2023-02-04T08:01:14;7.80;99.90
2389;DHT22;1205;47.984;7.668;2023-02-04T08:03:39;7.90;99.90
2389;DHT22;1205;47.984;7.668;2023-02-04T08:06:07;7.80;99.90
2389;DHT22;1205;47.984;7.668;2023-02-04T08:08:32;7.90;99.90
2389;DHT22;1205;47.984;7.668;2023-02-04T08:10:58;7.90;99.90
2389;DHT22;1205;47.984;7.668;2023-02-04T08:13:23;7.90;99.90
2389;DHT22;1205;47.984;7.668;2023-02-04T08:15:50;7.90;99.90
2389;DHT22;1205;47.984;7.668;2023-02-04T08:18:15;8.00;99.90
2389;DHT22;1205;47.984;7.668;2023-02-04T08:20:41;8.00;99.90
2389;DHT22;1205;47.984;7.668;2023-02-04T08:23:07;8.00;99.90
2389;DHT22;1205;47.984;7.668;2023-02-04T08:25:33;8.00;99.90
2389;DHT22;1205;47.984;7.668;2023-02-04T08:27:58;8.10;99.90
2389;DHT22;1205;47.984;7.668;2023-02-04T08:30:24;8.10;99.90
2389;DHT22;1205;47.984;7.668;2023-02-04T08:32:49;7.90;99.90
2389;DHT22;1205;47.984;7.668;2023-02-04T08:35:15;8.00;99.90
2389;DHT22;1205;47.984;7.668;2023-02-04T08:37:41;8.00;99.90
2389;DHT22;1205;47.984;7.668;2023-02-04T08:40:07;8.10;99.90
2389;DHT22;1205;47.984;7.668;2023-02-04T08:42:32;8.20;99.90
2389;DHT22;1205;47.984;7.668;2023-02-04T08:44:59;8.10;99.90
2389;DHT22;1205;47.984;7.668;2023-02-04T08:47:24;8.10;99.90
2389;DHT22;1205;47.984;7.668;2023-02-04T08:49:50;8.20;99.90
2389;DHT22;1205;47.984;7.668;2023-02-04T08:52:16;8.20;99.90
2389;DHT22;1205;47.984;7.668;2023-02-04T08:54:41;8.10;99.90
2389;DHT22;1205;47.984;7.668;2023-02-04T08:57:07;8.10;99.90
2389;DHT22;1205;47.984;7.668;2023-02-04T08:59:32;8.20;99.90
2389;DHT22;1205;47.984;7.668;2023-02-04T09:01:58;8.30;99.90
2389;DHT22;1205;47.984;7.668;2023-02-04T09:04:24;8.30;99.90
2389;DHT22;1205;47.984;7.668;2023-02-04T09:06:50;8.30;99.90
2389;DHT22;1205;47.984;7.668;2023-02-04T09:09:16;8.30;99.90
2389;DHT22;1205;47.984;7.668;2023-02-04T09:11:42;8.30;99.90
2389;DHT22;1205;47.984;7.668;2023-02-04T09:14:08;8.30;99.90
2389;DHT22;1205;47.984;7.668;2023-02-04T09:16:33;8.30;99.90
2389;DHT22;1205;47.984;7.668;2023-02-04T09:18:59;8.30;99.90
2389;DHT22;1205;47.984;7.668;2023-02-04T09:21:26;8.30;99.90
2389;DHT22;1205;47.984;7.668;2023-02-04T09:23:52;8.50;99.90
2389;DHT22;1205;47.984;7.668;2023-02-04T09:26:17;8.50;99.90
2389;DHT22;1205;47.984;7.668;2023-02-04T09:28:43;8.50;99.90
2389;DHT22;1205;47.984;7.668;2023-02-04T09:31:09;8.40;99.90
2389;DHT22;1205;47.984;7.668;2023-02-04T09:33:35;8.30;99.90
2389;DHT22;1205;47.984;7.668;2023-02-04T09:36:01;8.30;99.90
2389;DHT22;1205;47.984;7.668;2023-02-04T09:38:27;8.40;99.90
2389;DHT22;1205;47.984;7.668;2023-02-04T09:40:56;8.40;99.90
2389;DHT22;1205;47.984;7.668;2023-02-04T09:43:25;8.50;99.90
2389;DHT22;1205;47.984;7.668;2023-02-04T09:45:52;8.60;99.90
2389;DHT22;1205;47.984;7.668;2023-02-04T09:48:18;8.60;99.90
2389;DHT22;1205;47.984;7.668;2023-02-04T09:50:44;8.70;99.90
2389;DHT22;1205;47.984;7.668;2023-02-04T09:53:13;8.60;99.90
2389;DHT22;1205;47.984;7.668;2023-02-04T09:55:43;8.60;99.90
2389;DHT22;1205;47.984;7.668;2023-02-04T09:58:22;8.60;99.90
2389;DHT22;1205;47.984;7.668;2023-02-04T10:00:57;8.70;99.90
2389;DHT22;1205;47.984;7.668;2023-02-04T10:03:24;8.90;99.90
2389;DHT22;1205;47.984;7.668;2023-02-04T10:05:50;8.90;99.90
2389;DHT22;1205;47.984;7.668;2023-02-04T10:08:19;8.80;99.90
2389;DHT22;1205;47.984;7.668;2023-02-04T10:10:47;8.80;99.90
2389;DHT22;1205;47.984;7.668;2023-02-04T10:13:19;8.90;99.90
2389;DHT22;1205;47.984;7.668;2023-02-04T10:15:46;8.90;99.90
2389;DHT22;1205;47.984;7.668;2023-02-04T10:18:21;8.90;99.90
2389;DHT22;1205;47.984;7.668;2023-02-04T10:20:49;9.00;99.90
2389;DHT22;1205;47.984;7.668;2023-02-04T10:23:15;9.00;99.90
2389;DHT22;1205;47.984;7.668;2023-02-04T10:25:40;9.10;99.90
2389;DHT22;1205;47.984;7.668;2023-02-04T10:28:06;9.10;99.90
2389;DHT22;1205;47.984;7.668;2023-02-04T10:30:38;9.10;99.90
2389;DHT22;1205;47.984;7.668;2023-02-04T10:35:50;9.30;99.90
2389;DHT22;1205;47.984;7.668;2023-02-04T10:38:16;9.40;99.90
2389;DHT22;1205;47.984;7.668;2023-02-04T10:40:42;9.20;99.90
2389;DHT22;1205;47.984;7.668;2023-02-04T10:43:09;9.20;99.90
2389;DHT22;1205;47.984;7.668;2023-02-04T10:45:36;9.20;99.90
2389;DHT22;1205;47.984;7.668;2023-02-04T10:48:01;9.30;99.90
2389;DHT22;1205;47.984;7.668;2023-02-04T10:50:28;9.20;99.90
2389;DHT22;1205;47.984;7.668;2023-02-04T10:52:57;9.20;99.90
2389;DHT22;1205;47.984;7.668;2023-02-04T10:55:48;9.10;99.90
2389;DHT22;1205;47.984;7.668;2023-02-04T10:58:17;9.20;99.90
2389;DHT22;1205;47.984;7.668;2023-02-04T11:00:45;9.10;99.90
2389;DHT22;1205;47.984;7.668;2023-02-04T11:03:27;9.20;99.90
2389;DHT22;1205;47.984;7.668;2023-02-04T11:05:58;9.20;99.90
2389;DHT22;1205;47.984;7.668;2023-02-04T11:08:28;9.30;99.90
2389;DHT22;1205;47.984;7.668;2023-02-04T11:10:59;9.20;99.90
2389;DHT22;1205;47.984;7.668;2023-02-04T11:13:45;9.20;99.90
2389;DHT22;1205;47.984;7.668;2023-02-04T11:21:27;9.30;99.90
2389;DHT22;1205;47.984;7.668;2023-02-04T11:26:41;9.30;99.90
2389;DHT22;1205;47.984;7.668;2023-02-04T11:29:08;9.40;99.90
2389;DHT22;1205;47.984;7.668;2023-02-04T11:31:42;9.40;99.90
2389;DHT22;1205;47.984;7.668;2023-02-04T11:39:31;10.50;99.90
2389;DHT22;1205;47.984;7.668;2023-02-04T11:41:58;10.80;99.90
2389;DHT22;1205;47.984;7.668;2023-02-04T11:44:24;11.10;99.90
2389;DHT22;1205;47.984;7.668;2023-02-04T11:46:51;10.50;99.90
2389;DHT22;1205;47.984;7.668;2023-02-04T11:49:19;10.30;99.90
2389;DHT22;1205;47.984;7.668;2023-02-04T11:51:46;10.20;99.90
2389;DHT22;1205;47.984;7.668;2023-02-04T11:54:13;9.90;99.90
2389;DHT22;1205;47.984;7.668;2023-02-04T11:56:40;10.00;99.90
2389;DHT22;1205;47.984;7.668;2023-02-04T11:59:08;10.00;99.90
2389;DHT22;1205;47.984;7.668;2023-02-04T12:01:35;9.90;99.90
2389;DHT22;1205;47.984;7.668;2023-02-04T12:04:03;10.00;99.90
2389;DHT22;1205;47.984;7.668;2023-02-04T12:06:31;10.10;99.90
2389;DHT22;1205;47.984;7.668;2023-02-04T12:09:22;10.20;99.90
2389;DHT22;1205;47.984;7.668;2023-02-04T12:11:55;10.10;99.90
2389;DHT22;1205;47.984;7.668;2023-02-04T12:14:28;10.00;99.90
2389;DHT22;1205;47.984;7.668;2023-02-04T12:16:55;10.00;99.90
2389;DHT22;1205;47.984;7.668;2023-02-04T12:19:21;10.10;99.90
2389;DHT22;1205;47.984;7.668;2023-02-04T12:21:46;9.90;99.90
2389;DHT22;1205;47.984;7.668;2023-02-04T12:24:12;10.00;99.90
2389;DHT22;1205;47.984;7.668;2023-02-04T12:26:37;10.10;99.90
2389;DHT22;1205;47.984;7.668;2023-02-04T12:29:03;10.30;99.90
2389;DHT22;1205;47.984;7.668;2023-02-04T12:31:30;10.20;99.90
2389;DHT22;1205;47.984;7.668;2023-02-04T12:33:56;10.10;99.90
2389;DHT22;1205;47.984;7.668;2023-02-04T12:36:21;10.20;99.90
2389;DHT22;1205;47.984;7.668;2023-02-04T12:38:47;10.30;99.90
2389;DHT22;1205;47.984;7.668;2023-02-04T12:41:13;10.40;99.90
2389;DHT22;1205;47.984;7.668;2023-02-04T12:43:38;10.40;99.90
2389;DHT22;1205;47.984;7.668;2023-02-04T12:46:04;10.30;99.90
2389;DHT22;1205;47.984;7.668;2023-02-04T12:48:29;10.40;99.90
2389;DHT22;1205;47.984;7.668;2023-02-04T12:50:55;10.40;99.90
2389;DHT22;1205;47.984;7.668;2023-02-04T12:53:21;10.40;99.90
2389;DHT22;1205;47.984;7.668;2023-02-04T12:55:46;10.50;99.90
2389;DHT22;1205;47.984;7.668;2023-02-04T12:58:13;10.40;99.90
2389;DHT22;1205;47.984;7.668;2023-02-04T13:00:38;10.50;99.90
2389;DHT22;1205;47.984;7.668;2023-02-04T13:03:04;10.40;99.90
2389;DHT22;1205;47.984;7.668;2023-02-04T13:05:30;10.50;99.90
2389;DHT22;1205;47.984;7.668;2023-02-04T13:07:55;10.50;99.90
2389;DHT22;1205;47.984;7.668;2023-02-04T13:10:22;10.50;99.90
2389;DHT22;1205;47.984;7.668;2023-02-04T13:12:49;10.30;99.90
2389;DHT22;1205;47.984;7.668;2023-02-04T13:15:15;10.30;99.90
2389;DHT22;1205;47.984;7.668;2023-02-04T13:17:41;10.30;99.90
2389;DHT22;1205;47.984;7.668;2023-02-04T13:20:08;10.30;99.90
2389;DHT22;1205;47.984;7.668;2023-02-04T13:22:34;10.40;99.90
2389;DHT22;1205;47.984;7.668;2023-02-04T13:24:59;10.40;99.90
2389;DHT22;1205;47.984;7.668;2023-02-04T13:27:25;10.50;99.90
2389;DHT22;1205;47.984;7.668;2023-02-04T13:29:52;10.50;99.90
2389;DHT22;1205;47.984;7.668;2023-02-04T13:32:17;10.40;99.90
2389;DHT22;1205;47.984;7.668;2023-02-04T13:34:43;10.50;99.90
2389;DHT22;1205;47.984;7.668;2023-02-04T13:37:08;10.60;99.90
2389;DHT22;1205;47.984;7.668;2023-02-04T13:39:34;10.60;99.90
2389;DHT22;1205;47.984;7.668;2023-02-04T13:41:59;10.60;99.90
2389;DHT22;1205;47.984;7.668;2023-02-04T13:44:25;10.60;99.90
2389;DHT22;1205;47.984;7.668;2023-02-04T13:46:51;10.70;99.90
2389;DHT22;1205;47.984;7.668;2023-02-04T13:49:16;10.60;99.90
2389;DHT22;1205;47.984;7.668;2023-02-04T13:51:42;10.60;99.90
2389;DHT22;1205;47.984;7.668;2023-02-04T13:54:08;10.50;99.90
2389;DHT22;1205;47.984;7.668;2023-02-04T13:56:33;10.60;99.90
2389;DHT22;1205;47.984;7.668;2023-02-04T13:58:59;10.60;99.90
2389;DHT22;1205;47.984;7.668;2023-02-04T14:01:24;10.60;99.90
2389;DHT22;1205;47.984;7.668;2023-02-04T14:03:50;10.60;99.90
2389;DHT22;1205;47.984;7.668;2023-02-04T14:06:16;10.50;99.90
2389;DHT22;1205;47.984;7.668;2023-02-04T14:08:45;10.60;99.90
2389;DHT22;1205;47.984;7.668;2023-02-04T14:11:11;10.40;99.90
2389;DHT22;1205;47.984;7.668;2023-02-04T14:13:37;10.50;99.90
2389;DHT22;1205;47.984;7.668;2023-02-04T14:16:02;10.50;99.90
2389;DHT22;1205;47.984;7.668;2023-02-04T14:18:28;10.40;99.90
2389;DHT22;1205;47.984;7.668;2023-02-04T14:20:53;10.50;99.90
2389;DHT22;1205;47.984;7.668;2023-02-04T14:23:19;10.50;99.90
2389;DHT22;1205;47.984;7.668;2023-02-04T14:25:44;10.50;99.90
2389;DHT22;1205;47.984;7.668;2023-02-04T14:28:10;10.50;99.90
2389;DHT22;1205;47.984;7.668;2023-02-04T14:30:36;10.50;99.90
2389;DHT22;1205;47.984;7.668;2023-02-04T14:33:02;10.50;99.90
2389;DHT22;1205;47.984;7.668;2023-02-04T14:35:28;10.60;99.90
2389;DHT22;1205;47.984;7.668;2023-02-04T14:37:53;10.60;99.90
2389;DHT22;1205;47.984;7.668;2023-02-04T14:40:19;10.50;99.90
2389;DHT22;1205;47.984;7.668;2023-02-04T14:42:45;10.50;99.90
2389;DHT22;1205;47.984;7.668;2023-02-04T14:45:13;10.40;99.90
2389;DHT22;1205;47.984;7.668;2023-02-04T14:47:39;10.50;99.90
2389;DHT22;1205;47.984;7.668;2023-02-04T14:50:08;10.50;99.90
2389;DHT22;1205;47.984;7.668;2023-02-04T14:52:33;10.50;99.90
2389;DHT22;1205;47.984;7.668;2023-02-04T14:54:59;10.50;99.90
2389;DHT22;1205;47.984;7.668;2023-02-04T14:57:25;10.50;99.90
2389;DHT22;1205;47.984;7.668;2023-02-04T14:59:50;10.40;99.90
2389;DHT22;1205;47.984;7.668;2023-02-04T15:02:16;10.40;99.90
2389;DHT22;1205;47.984;7.668;2023-02-04T15:04:43;10.40;99.90
2389;DHT22;1205;47.984;7.668;2023-02-04T15:07:09;10.30;99.90
2389;DHT22;1205;47.984;7.668;2023-02-04T15:09:34;10.20;99.90
2389;DHT22;1205;47.984;7.668;2023-02-04T15:12:00;10.10;99.90
2389;DHT22;1205;47.984;7.668;2023-02-04T15:14:26;10.10;99.90
2389;DHT22;1205;47.984;7.668;2023-02-04T15:16:51;10.10;99.90
2389;DHT22;1205;47.984;7.668;2023-02-04T15:19:19;10.10;99.90
2389;DHT22;1205;47.984;7.668;2023-02-04T15:21:45;10.10;99.90
2389;DHT22;1205;47.984;7.668;2023-02-04T15:24:11;10.10;99.90
2389;DHT22;1205;47.984;7.668;2023-02-04T15:26:36;10.00;99.90
2389;DHT22;1205;47.984;7.668;2023-02-04T15:29:03;9.90;99.90
2389;DHT22;1205;47.984;7.668;2023-02-04T15:31:28;9.80;99.90
2389;DHT22;1205;47.984;7.668;2023-02-04T15:33:54;9.90;99.90
2389;DHT22;1205;47.984;7.668;2023-02-04T15:36:19;9.70;99.90
2389;DHT22;1205;47.984;7.668;2023-02-04T15:38:45;9.80;99.90
2389;DHT22;1205;47.984;7.668;2023-02-04T15:41:11;9.70;99.90
2389;DHT22;1205;47.984;7.668;2023-02-04T15:43:36;9.60;99.90
2389;DHT22;1205;47.984;7.668;2023-02-04T15:46:02;9.60;99.90
2389;DHT22;1205;47.984;7.668;2023-02-04T15:48:28;9.60;99.90
2389;DHT22;1205;47.984;7.668;2023-02-04T15:50:54;9.60;99.90
2389;DHT22;1205;47.984;7.668;2023-02-04T15:53:19;9.60;99.90
2389;DHT22;1205;47.984;7.668;2023-02-04T15:55:45;9.60;99.90
2389;DHT22;1205;47.984;7.668;2023-02-04T15:58:11;9.60;99.90
2389;DHT22;1205;47.984;7.668;2023-02-04T16:00:37;9.50;99.90
2389;DHT22;1205;47.984;7.668;2023-02-04T16:03:03;9.50;99.90
2389;DHT22;1205;47.984;7.668;2023-02-04T16:05:29;9.50;99.90
2389;DHT22;1205;47.984;7.668;2023-02-04T16:07:55;9.40;99.90
2389;DHT22;1205;47.984;7.668;2023-02-04T16:10:20;9.30;99.90
2389;DHT22;1205;47.984;7.668;2023-02-04T16:12:46;9.30;99.90
2389;DHT22;1205;47.984;7.668;2023-02-04T16:15:12;9.30;99.90
2389;DHT22;1205;47.984;7.668;2023-02-04T16:17:38;9.10;99.90
2389;DHT22;1205;47.984;7.668;2023-02-04T16:20:05;9.10;99.90
2389;DHT22;1205;47.984;7.668;2023-02-04T16:22:31;9.10;99.90
2389;DHT22;1205;47.984;7.668;2023-02-04T16:24:57;9.10;99.90